Time;durP1;ratioP1;P1;durP2;ratioP2;P2;SDS_P1;SDS_P2;PMS_P1;PMS_P2;Temp;Humidity;BMP_temperature;BMP_pressure;BME280_temperature;BME280_humidity;BME280_pressure;Samples;Min_cycle;Max_cycle;Signal;HPM_P1;HPM_P2
2023/02/08 00:03:07;;;;;;;207.40;92.50;;;;;;;-3.14;100.00;101479.66;269438;1259;23746;-83
2023/02/08 00:09:09;;;;;;;218.80;98.70;;;;;;;-3.16;100.00;101485.63;269375;1270;22641;-85
2023/02/08 00:15:10;;;;;;;237.10;102.70;;;;;;;-3.16;100.00;101493.82;272142;1270;22596;-84
2023/02/08 00:21:14;;;;;;;238.90;102.00;;;;;;;-3.16;100.00;101496.71;271192;1259;22333;-84
2023/02/08 00:27:17;;;;;;;225.90;96.40;;;;;;;-3.15;100.00;101489.45;273284;1270;22197;-84
2023/02/08 00:33:18;;;;;;;209.80;95.40;;;;;;;-3.13;100.00;101496.88;273330;1271;23475;-83
2023/02/08 00:39:20;;;;;;;232.30;100.00;;;;;;;-3.10;100.00;101499.44;269977;1270;23510;-84
2023/02/08 00:45:22;;;;;;;197.70;86.30;;;;;;;-3.09;100.00;101499.84;269435;1260;23125;-83
2023/02/08 00:51:24;;;;;;;217.00;94.70;;;;;;;-3.11;100.00;101497.77;272129;1270;22344;-83
2023/02/08 00:57:25;;;;;;;212.00;92.10;;;;;;;-3.07;100.00;101493.64;271713;1270;26640;-83
2023/02/08 01:03:27;;;;;;;219.90;94.40;;;;;;;-3.04;100.00;101495.08;269877;1270;22527;-83
2023/02/08 01:09:29;;;;;;;212.80;90.20;;;;;;;-3.08;100.00;101498.64;270446;1260;23265;-83
2023/02/08 01:15:31;;;;;;;185.50;80.70;;;;;;;-3.10;100.00;101498.75;270952;1270;22339;-84
2023/02/08 01:21:38;;;;;;;200.90;88.10;;;;;;;-3.11;100.00;101501.48;273425;1270;22284;-84
2023/02/08 01:27:40;;;;;;;211.90;89.20;;;;;;;-3.07;100.00;101500.83;270827;1260;22215;-83
2023/02/08 01:33:42;;;;;;;194.90;87.60;;;;;;;-3.06;100.00;101499.14;268670;1270;22669;-84
2023/02/08 01:39:44;;;;;;;194.10;82.80;;;;;;;-3.05;100.00;101500.39;269749;1268;22709;-84
2023/02/08 01:45:46;;;;;;;201.70;84.90;;;;;;;-3.09;100.00;101501.45;269375;1259;23309;-85
2023/02/08 01:52:01;;;;;;;203.90;87.00;;;;;;;-3.05;100.00;101499.27;272395;1272;23563;-84
2023/02/08 01:58:05;;;;;;;211.80;90.40;;;;;;;-3.06;100.00;101504.13;273139;1272;23244;-84
2023/02/08 02:04:07;;;;;;;203.70;90.70;;;;;;;-3.02;100.00;101509.55;273124;1260;23184;-84
2023/02/08 02:10:31;;;;;;;203.10;88.80;;;;;;;-2.96;100.00;101508.04;269582;1272;22549;-83
2023/02/08 02:16:33;;;;;;;207.50;87.50;;;;;;;-2.94;100.00;101509.50;269812;1260;22327;-87
2023/02/08 02:23:06;;;;;;;202.80;89.90;;;;;;;-2.91;100.00;101511.77;269383;1270;23434;-84
2023/02/08 02:29:32;;;;;;;215.20;92.90;;;;;;;-2.86;100.00;101514.27;272646;1262;23085;-84
2023/02/08 02:36:26;;;;;;;207.80;91.50;;;;;;;-2.85;100.00;101515.45;269158;1261;22772;-84
2023/02/08 02:49:05;;;;;;;216.60;93.50;;;;;;;-2.81;100.00;101510.35;270119;1270;22455;-84
2023/02/08 02:55:12;;;;;;;223.10;92.40;;;;;;;-2.81;100.00;101512.17;269676;1269;22208;-84
2023/02/08 03:01:35;;;;;;;224.20;95.60;;;;;;;-2.81;100.00;101513.79;269386;1270;22351;-84
2023/02/08 03:08:35;;;;;;;215.80;97.80;;;;;;;-2.82;100.00;101522.20;269787;1262;22312;-84
2023/02/08 03:15:25;;;;;;;218.50;94.80;;;;;;;-2.83;100.00;101532.64;267970;1270;22553;-84
2023/02/08 03:21:31;;;;;;;216.60;94.60;;;;;;;-2.81;100.00;101539.07;269349;1270;22543;-84
2023/02/08 03:27:37;;;;;;;222.10;97.10;;;;;;;-2.83;100.00;101546.23;270904;1260;24209;-85
2023/02/08 03:34:05;;;;;;;219.00;95.40;;;;;;;-2.81;100.00;101554.41;269970;1270;22563;-84
2023/02/08 03:40:42;;;;;;;225.20;97.10;;;;;;;-2.78;100.00;101555.15;270086;1268;22239;-84
2023/02/08 03:46:51;;;;;;;228.50;99.50;;;;;;;-2.77;100.00;101560.90;270049;1272;22549;-83
2023/02/08 03:53:14;;;;;;;222.40;97.10;;;;;;;-2.75;100.00;101560.14;270052;1270;22598;-84
2023/02/08 03:59:31;;;;;;;214.80;95.10;;;;;;;-2.74;100.00;101555.79;269647;1270;24260;-85
2023/02/08 04:05:33;;;;;;;225.70;95.00;;;;;;;-2.75;100.00;101556.77;272359;1270;22367;-85
2023/02/08 04:11:35;;;;;;;219.80;96.00;;;;;;;-2.80;100.00;101550.08;272303;1272;23417;-84
2023/02/08 04:17:37;;;;;;;228.80;94.50;;;;;;;-2.82;100.00;101547.62;272668;1271;23532;-84
2023/02/08 04:23:38;;;;;;;223.60;94.00;;;;;;;-2.80;100.00;101545.00;273457;1267;24465;-84
2023/02/08 04:29:40;;;;;;;235.40;111.00;;;;;;;-2.76;100.00;101544.37;273411;1267;22301;-84
2023/02/08 04:35:42;;;;;;;232.40;105.80;;;;;;;-2.73;100.00;101538.29;273415;1254;22189;-84
2023/02/08 04:41:59;;;;;;;233.80;103.20;;;;;;;-2.70;100.00;101540.23;273673;1273;22214;-84
2023/02/08 04:48:02;;;;;;;225.60;101.80;;;;;;;-2.73;100.00;101542.91;273437;1270;22199;-85
2023/02/08 04:54:04;;;;;;;243.10;105.80;;;;;;;-2.71;100.00;101544.26;272655;1264;22317;-85
2023/02/08 05:00:06;;;;;;;253.10;112.20;;;;;;;-2.71;100.00;101550.60;271187;1270;22354;-84
2023/02/08 05:06:08;;;;;;;268.20;119.20;;;;;;;-2.73;100.00;101563.20;272772;1270;22327;-85
2023/02/08 05:12:12;;;;;;;253.20;109.50;;;;;;;-2.75;100.00;101571.31;273328;1270;22369;-85
2023/02/08 05:18:15;;;;;;;247.40;105.40;;;;;;;-2.74;100.00;101576.05;272424;1267;22564;-84
2023/02/08 05:24:17;;;;;;;235.30;98.80;;;;;;;-2.75;100.00;101573.91;269039;1270;22550;-84
2023/02/08 05:30:19;;;;;;;215.10;93.60;;;;;;;-2.78;100.00;101576.10;269235;1270;22572;-84
2023/02/08 05:36:24;;;;;;;202.50;89.00;;;;;;;-2.78;100.00;101589.08;269294;1270;23797;-85
2023/02/08 05:42:26;;;;;;;217.10;93.50;;;;;;;-2.79;100.00;101599.01;269962;1264;25503;-84
2023/02/08 05:48:41;;;;;;;178.80;77.50;;;;;;;-2.81;100.00;101603.40;269764;1270;22775;-85
2023/02/08 05:54:43;;;;;;;149.30;63.20;;;;;;;-2.84;100.00;101606.54;271907;1255;22242;-87
2023/02/08 06:00:45;;;;;;;140.10;61.30;;;;;;;-2.85;100.00;101616.27;271760;1270;25317;-85
2023/02/08 06:06:56;;;;;;;118.10;49.90;;;;;;;-2.82;100.00;101626.72;269917;1270;22222;-85
2023/02/08 06:13:00;;;;;;;117.30;48.30;;;;;;;-2.80;100.00;101627.20;269416;1270;23132;-85
2023/02/08 06:19:02;;;;;;;100.40;42.90;;;;;;;-2.79;100.00;101628.13;271052;1257;23133;-86
2023/02/08 06:25:05;;;;;;;106.60;43.50;;;;;;;-2.82;100.00;101636.70;269915;1270;23138;-85
2023/02/08 06:31:10;;;;;;;96.30;39.70;;;;;;;-2.84;100.00;101644.00;269513;1270;22650;-85
2023/02/08 06:37:12;;;;;;;107.60;43.60;;;;;;;-2.92;100.00;101642.70;270500;1254;22203;-84
2023/02/08 06:43:14;;;;;;;94.10;38.30;;;;;;;-3.06;100.00;101646.41;270357;1270;22558;-84
2023/02/08 06:49:15;;;;;;;100.50;40.40;;;;;;;-3.18;100.00;101652.27;269613;1259;22537;-84
2023/02/08 06:55:17;;;;;;;91.10;40.30;;;;;;;-3.28;100.00;101656.55;269567;1269;22522;-83
2023/02/08 07:01:19;;;;;;;105.20;41.80;;;;;;;-3.33;100.00;101659.58;269688;1258;24247;-85
2023/02/08 07:07:21;;;;;;;87.00;37.30;;;;;;;-3.37;100.00;101652.80;269320;1260;22347;-85
2023/02/08 07:13:22;;;;;;;98.00;41.20;;;;;;;-3.33;100.00;101655.97;270984;1261;22735;-84
2023/02/08 07:19:25;;;;;;;105.80;43.80;;;;;;;-3.19;100.00;101668.45;269332;1270;25341;-85
2023/02/08 07:25:27;;;;;;;107.80;44.60;;;;;;;-3.02;100.00;101672.16;270030;1270;23015;-84
2023/02/08 07:31:29;;;;;;;102.30;45.50;;;;;;;-2.84;100.00;101675.69;270995;1270;23513;-84
2023/02/08 07:37:31;;;;;;;110.90;49.20;;;;;;;-2.69;100.00;101679.11;273296;1258;23483;-85
2023/02/08 07:43:53;;;;;;;131.30;54.30;;;;;;;-2.53;100.00;101679.09;273280;1259;22323;-85
2023/02/08 07:49:55;;;;;;;134.30;55.10;;;;;;;-2.39;100.00;101686.47;272337;1257;22234;-86
2023/02/08 07:55:57;;;;;;;127.60;53.40;;;;;;;-2.30;100.00;101684.95;271841;1256;24146;-86
2023/02/08 08:02:17;;;;;;;140.70;59.50;;;;;;;-2.19;100.00;101683.89;270848;1266;22588;-87
2023/02/08 08:08:19;;;;;;;132.60;55.00;;;;;;;-2.04;100.00;101680.47;269784;1257;22541;-85
2023/02/08 08:14:21;;;;;;;134.80;58.30;;;;;;;-1.83;100.00;101686.61;269910;1260;22639;-86
2023/02/08 08:20:23;;;;;;;113.00;48.00;;;;;;;-1.64;100.00;101699.27;269922;1267;22558;-87
2023/02/08 08:26:25;;;;;;;115.10;50.40;;;;;;;-1.53;100.00;101701.90;271062;1270;22387;-86
2023/02/08 08:32:48;;;;;;;119.90;49.50;;;;;;;-1.47;100.00;101708.70;270871;1270;24253;-88
2023/02/08 08:38:50;;;;;;;111.40;45.60;;;;;;;-1.39;100.00;101708.92;270404;1270;22393;-87
2023/02/08 08:44:53;;;;;;;105.60;43.60;;;;;;;-1.33;100.00;101708.69;270167;1259;24000;-89
2023/02/08 08:50:54;;;;;;;110.00;45.60;;;;;;;-1.37;100.00;101714.45;272315;1261;24057;-87
2023/02/08 08:56:57;;;;;;;106.70;44.70;;;;;;;-1.37;100.00;101721.21;272788;1270;22332;-86
2023/02/08 09:03:00;;;;;;;101.80;43.80;;;;;;;-1.41;100.00;101726.00;272595;1269;22553;-87
2023/02/08 09:09:03;;;;;;;114.00;46.50;;;;;;;-1.44;100.00;101723.41;270179;1270;22468;-88
2023/02/08 09:15:05;;;;;;;110.80;45.40;;;;;;;-1.31;100.00;101722.34;269876;1270;22598;-87
2023/02/08 09:21:12;;;;;;;105.20;43.70;;;;;;;-1.16;100.00;101721.25;269646;1270;22606;-86
2023/02/08 09:27:14;;;;;;;105.60;42.30;;;;;;;-1.03;100.00;101723.27;270082;1268;165765;-87
2023/02/08 09:33:16;;;;;;;100.70;41.80;;;;;;;-0.95;100.00;101731.88;270929;1270;22539;-88
2023/02/08 09:39:21;;;;;;;90.60;38.90;;;;;;;-0.89;100.00;101737.83;270277;1267;22704;-88
2023/02/08 09:45:49;;;;;;;87.10;37.90;;;;;;;-0.81;100.00;101737.24;269634;1270;22523;-87
2023/02/08 09:51:56;;;;;;;78.80;32.50;;;;;;;-0.59;100.00;101736.24;270032;1270;22839;-87
2023/02/08 09:58:00;;;;;;;75.20;31.40;;;;;;;-0.32;100.00;101744.16;269951;1270;22598;-87
2023/02/08 10:04:06;;;;;;;73.40;31.60;;;;;;;0.30;100.00;101733.58;270688;1270;22641;-88
2023/02/08 10:10:22;;;;;;;67.90;29.50;;;;;;;0.97;100.00;101725.48;268975;1270;23143;-87
2023/02/08 10:16:52;;;;;;;67.50;29.00;;;;;;;1.00;100.00;101723.00;270828;1270;22209;-88
2023/02/08 10:23:22;;;;;;;67.40;30.90;;;;;;;1.07;100.00;101721.54;269612;1270;22710;-88
2023/02/08 10:29:27;;;;;;;66.60;28.00;;;;;;;1.14;100.00;101712.31;270365;1270;22529;-88
2023/02/08 10:35:36;;;;;;;67.00;29.30;;;;;;;0.98;100.00;101716.77;269439;1269;22608;-89
2023/02/08 10:41:44;;;;;;;55.30;26.10;;;;;;;0.65;100.00;101714.39;270921;1270;22607;-89
2023/02/08 10:48:03;;;;;;;57.20;25.40;;;;;;;0.39;100.00;101712.52;270483;1270;23739;-88
2023/02/08 10:54:05;;;;;;;50.20;23.70;;;;;;;0.28;100.00;101709.53;269887;1269;22206;-88
2023/02/08 11:00:17;;;;;;;60.30;23.90;;;;;;;0.93;100.00;101699.50;270364;1270;22332;-86
2023/02/08 11:06:25;;;;;;;40.60;17.30;;;;;;;1.83;99.83;101702.27;270537;1269;22381;-87
2023/02/08 11:12:27;;;;;;;;;;;;;;;2.24;99.36;101701.66;273320;1270;24740;-88
2023/02/08 11:18:47;;;;;;;36.40;16.50;;;;;;;2.59;99.38;101696.05;273278;1269;22435;-87
2023/02/08 11:25:01;;;;;;;33.80;16.80;;;;;;;2.86;98.68;101687.51;273175;1270;22219;-88
2023/02/08 11:31:16;;;;;;;31.70;16.20;;;;;;;3.05;97.49;101691.54;273162;1269;23371;-88
2023/02/08 11:37:27;;;;;;;37.00;17.70;;;;;;;2.73;96.30;101695.61;273233;1270;23490;-88
2023/02/08 11:43:34;;;;;;;35.80;17.00;;;;;;;2.23;96.60;101698.33;272310;1270;22574;-88
2023/02/08 11:49:43;;;;;;;30.40;15.30;;;;;;;1.99;95.86;101692.96;272757;1270;22196;-87
2023/02/08 11:56:00;;;;;;;29.40;13.90;;;;;;;1.75;95.21;101686.20;270799;1270;22526;-86
2023/02/08 12:02:41;;;;;;;26.60;13.40;;;;;;;1.52;94.73;101683.21;273213;1270;22235;-87
2023/02/08 12:09:06;;;;;;;31.40;13.20;;;;;;;1.46;94.14;101690.90;273143;1270;22207;-87
2023/02/08 12:15:36;;;;;;;26.00;13.40;;;;;;;1.24;93.43;101679.33;273182;1270;22313;-87
2023/02/08 12:21:42;;;;;;;25.90;13.70;;;;;;;1.09;93.00;101671.19;273065;1270;22450;-86
2023/02/08 12:27:56;;;;;;;25.10;11.30;;;;;;;0.98;92.69;101665.71;272862;1261;22534;-87
2023/02/08 12:34:16;;;;;;;23.40;12.20;;;;;;;0.91;92.21;101656.23;269762;1270;22530;-87
2023/02/08 12:40:48;;;;;;;24.70;12.00;;;;;;;0.86;92.00;101655.69;271548;1270;22390;-87
2023/02/08 12:47:17;;;;;;;22.10;11.70;;;;;;;0.76;91.52;101650.89;270949;1270;23706;-87
2023/02/08 12:53:36;;;;;;;20.80;11.00;;;;;;;0.76;91.48;101641.94;271012;1270;24233;-88
2023/02/08 12:59:48;;;;;;;18.20;10.10;;;;;;;0.85;90.93;101644.27;271272;1270;22174;-87
2023/02/08 13:05:51;;;;;;;23.50;11.80;;;;;;;0.87;90.33;101638.92;271806;1269;22317;-87
2023/02/08 13:11:56;;;;;;;24.30;10.70;;;;;;;0.75;89.16;101635.02;270585;1270;22575;-88
2023/02/08 13:18:05;;;;;;;21.80;10.80;;;;;;;0.65;89.10;101630.45;270556;1263;22503;-88
2023/02/08 13:24:25;;;;;;;17.00;8.90;;;;;;;0.55;89.11;101620.20;270599;1270;22604;-87
2023/02/08 13:30:27;;;;;;;26.00;11.50;;;;;;;0.60;89.10;101616.73;270084;1269;22636;-87
2023/02/08 13:36:34;;;;;;;36.10;18.30;;;;;;;0.58;88.57;101617.73;270844;1270;22305;-89
2023/02/08 13:42:42;;;;;;;22.20;11.40;;;;;;;0.59;88.57;101615.58;271606;1270;22571;-87
2023/02/08 13:48:53;;;;;;;26.70;12.30;;;;;;;0.65;88.06;101619.65;270599;1270;22572;-86
2023/02/08 13:55:30;;;;;;;21.00;11.00;;;;;;;0.69;87.75;101621.17;270519;1265;22846;-87
2023/02/08 14:01:34;;;;;;;20.90;10.70;;;;;;;0.66;87.52;101617.27;270559;1270;22582;-86
2023/02/08 14:07:41;;;;;;;23.60;11.20;;;;;;;0.62;87.18;101618.70;270174;1269;22572;-87
2023/02/08 14:13:52;;;;;;;;;;;;;;;0.61;86.76;101620.08;271702;1269;22525;-86
2023/02/08 14:19:59;;;;;;;20.90;11.50;;;;;;;0.57;86.50;101619.91;271037;1270;22728;-87
2023/02/08 14:26:08;;;;;;;23.10;11.50;;;;;;;0.47;86.19;101619.70;270003;1270;22531;-86
2023/02/08 14:32:22;;;;;;;21.90;11.30;;;;;;;0.35;85.64;101615.40;270025;1270;24917;-86
2023/02/08 14:38:44;;;;;;;20.90;11.00;;;;;;;0.25;85.30;101608.34;270985;1270;22549;-86
2023/02/08 14:44:55;;;;;;;26.90;12.80;;;;;;;0.16;85.07;101606.09;270206;1270;23126;-87
2023/02/08 14:51:09;;;;;;;29.60;14.90;;;;;;;0.09;85.13;101604.77;272332;1270;23134;-85
2023/02/08 14:57:30;;;;;;;35.50;16.10;;;;;;;-0.01;85.60;101607.52;272010;1270;23280;-86
2023/02/08 15:03:33;;;;;;;37.90;16.10;;;;;;;-0.12;85.81;101612.76;271361;1269;23860;-86
2023/02/08 15:09:38;;;;;;;34.10;15.10;;;;;;;-0.27;85.86;101617.75;273206;1261;22373;-86
2023/02/08 15:15:43;;;;;;;30.90;15.60;;;;;;;-0.38;85.89;101620.45;272111;1270;23037;-85
2023/02/08 15:21:44;;;;;;;32.90;15.90;;;;;;;-0.48;85.82;101619.75;270401;1270;22596;-87
2023/02/08 15:27:49;;;;;;;34.10;16.40;;;;;;;-0.60;86.01;101616.52;271145;1270;22594;-85
2023/02/08 15:33:52;;;;;;;36.60;16.70;;;;;;;-0.72;86.27;101607.70;271011;1270;22673;-85
2023/02/08 15:39:56;;;;;;;40.20;18.50;;;;;;;-0.81;86.27;101610.95;272605;1269;22195;-85
2023/02/08 15:46:03;;;;;;;152.40;65.90;;;;;;;-0.94;86.45;101613.36;273153;1269;23152;-85
2023/02/08 15:52:06;;;;;;;69.70;31.70;;;;;;;-1.09;86.60;101618.95;273063;1269;22369;-85
2023/02/08 15:58:30;;;;;;;53.60;25.00;;;;;;;-1.23;86.82;101619.22;271693;1270;25253;-84
2023/02/08 16:04:52;;;;;;;44.70;22.80;;;;;;;-1.37;86.95;101615.58;269804;1256;22567;-84
2023/02/08 16:11:27;;;;;;;47.50;23.30;;;;;;;-1.52;87.05;101613.98;272384;1264;24209;-84
2023/02/08 16:17:55;;;;;;;58.20;28.40;;;;;;;-1.70;87.26;101617.04;271614;1269;22236;-84
2023/02/08 16:24:24;;;;;;;65.00;34.30;;;;;;;-1.89;87.47;101613.42;270624;1269;23329;-84
2023/02/08 16:30:52;;;;;;;61.30;28.60;;;;;;;-2.05;87.49;101615.23;272364;1270;22564;-84
2023/02/08 16:36:54;;;;;;;71.80;38.50;;;;;;;-2.17;87.48;101615.04;271696;1269;22515;-83
2023/02/08 16:43:18;;;;;;;92.40;39.00;;;;;;;-2.26;87.47;101624.27;271959;1270;22677;-83
2023/02/08 16:49:20;;;;;;;106.90;45.90;;;;;;;-2.37;87.28;101620.70;272514;1270;22913;-84
2023/02/08 16:55:55;;;;;;;130.50;54.00;;;;;;;-2.43;87.36;101622.85;272289;1270;22856;-83
2023/02/08 17:01:58;;;;;;;73.90;33.70;;;;;;;-2.55;87.23;101619.28;272230;1270;25090;-83
2023/02/08 17:08:00;;;;;;;45.20;19.00;;;;;;;-2.66;87.13;101613.94;272685;1272;22562;-82
2023/02/08 17:14:04;;;;;;;33.40;17.50;;;;;;;-2.71;87.13;101608.81;263837;1271;10002075;-83
2023/02/08 17:20:22;;;;;;;37.10;19.00;;;;;;;-2.74;87.28;101616.59;270586;1262;22339;-84
2023/02/08 17:26:44;;;;;;;43.70;21.70;;;;;;;-2.87;87.23;101626.56;272810;1272;23078;-83
2023/02/08 17:40:04;;;;;;;74.50;32.80;;;;;;;-3.04;87.21;101628.62;272984;1272;22235;-83
2023/02/08 17:46:20;;;;;;;68.60;34.30;;;;;;;-3.08;87.58;101625.98;273157;1273;23068;-83
2023/02/08 17:52:27;;;;;;;;;;;;;;;-3.10;87.78;101624.88;271823;1272;22519;-83
2023/02/08 17:58:55;;;;;;;94.90;39.60;;;;;;;-3.15;87.82;101619.88;271525;1260;22545;-83
2023/02/08 18:04:59;;;;;;;93.20;39.80;;;;;;;-3.21;87.91;101615.48;270622;1270;22215;-83
2023/02/08 18:11:22;;;;;;;107.80;45.70;;;;;;;-3.29;87.89;101616.25;272776;1265;22264;-83
2023/02/08 18:17:24;;;;;;;86.90;40.20;;;;;;;-3.49;87.71;101614.95;273145;1262;22584;-85
2023/02/08 18:23:26;;;;;;;131.80;55.30;;;;;;;-3.72;87.61;101620.11;270838;1272;22762;-84
2023/02/08 18:29:29;;;;;;;119.10;52.20;;;;;;;-3.92;88.00;101624.58;270410;1262;22529;-85
2023/02/08 18:35:30;;;;;;;115.70;53.00;;;;;;;-4.03;88.44;101622.81;271670;1273;22568;-85
2023/02/08 18:41:34;;;;;;;122.10;48.90;;;;;;;-4.07;88.69;101615.48;272758;1272;22225;-85
2023/02/08 18:47:38;;;;;;;124.00;50.80;;;;;;;-4.12;88.62;101618.17;272812;1265;22209;-86
2023/02/08 18:53:42;;;;;;;106.90;46.40;;;;;;;-4.23;88.66;101618.73;273156;1271;22176;-85
2023/02/08 18:59:44;;;;;;;113.40;48.20;;;;;;;-4.32;88.84;101614.00;273027;1273;22236;-85
2023/02/08 19:05:47;;;;;;;100.40;45.40;;;;;;;-4.41;89.03;101608.65;273039;1278;22241;-85
2023/02/08 19:11:49;;;;;;;101.60;47.50;;;;;;;-4.63;88.69;101613.20;272332;1270;22548;-85
2023/02/08 19:17:53;;;;;;;106.40;47.40;;;;;;;-4.83;89.20;101607.73;272180;1272;22545;-85
2023/02/08 19:24:03;;;;;;;117.90;50.50;;;;;;;-4.95;89.31;101606.71;270802;1268;22404;-85
2023/02/08 19:30:27;;;;;;;127.60;55.10;;;;;;;-5.01;89.60;101606.92;272020;1270;22517;-85
2023/02/08 19:36:53;;;;;;;142.90;58.30;;;;;;;-5.16;89.24;101611.47;273312;1270;22352;-86
2023/02/08 19:43:10;;;;;;;140.70;56.90;;;;;;;-5.32;89.59;101608.25;271264;1272;22626;-86
2023/02/08 19:49:12;;;;;;;148.60;65.80;;;;;;;-5.35;89.87;101603.81;271412;1271;22624;-88
2023/02/08 19:55:16;;;;;;;137.50;61.70;;;;;;;-5.38;89.81;101598.07;272703;1271;22748;-87
2023/02/08 20:01:19;;;;;;;135.80;61.60;;;;;;;-5.39;90.13;101597.67;271576;1272;22324;-87
2023/02/08 20:07:24;;;;;;;138.50;64.10;;;;;;;-5.52;89.82;101594.73;272974;1264;22169;-86
2023/02/08 20:13:27;;;;;;;145.30;64.30;;;;;;;-5.59;90.12;101590.27;272879;1272;22547;-87
2023/02/08 20:19:29;;;;;;;166.70;71.70;;;;;;;-5.55;90.06;101584.75;273204;1270;22325;-87
2023/02/08 20:25:35;;;;;;;168.50;70.30;;;;;;;-5.54;90.18;101583.88;273249;1269;22344;-87
2023/02/08 20:31:41;;;;;;;148.90;68.50;;;;;;;-5.69;89.89;101581.48;273306;1269;22237;-86
2023/02/08 20:37:43;;;;;;;164.20;68.60;;;;;;;-5.81;90.52;101581.10;273316;1263;22334;-85
2023/02/08 20:43:45;;;;;;;181.90;85.50;;;;;;;-5.84;90.92;101577.80;271895;1260;23433;-86
2023/02/08 20:49:48;;;;;;;192.30;79.90;;;;;;;-5.89;90.97;101568.20;271864;1263;22232;-86
2023/02/08 20:55:49;;;;;;;173.30;79.70;;;;;;;-5.98;91.03;101556.26;270936;1260;22678;-86
2023/02/08 21:01:51;;;;;;;173.40;74.90;;;;;;;-6.06;90.98;101551.36;271065;1270;22311;-85
2023/02/08 21:07:53;;;;;;;162.80;74.60;;;;;;;-6.25;90.86;101551.20;273599;1259;23065;-85
2023/02/08 21:13:55;;;;;;;220.40;97.70;;;;;;;-6.31;91.55;101552.33;273666;1269;22342;-84
2023/02/08 21:19:57;;;;;;;258.20;107.90;;;;;;;-6.42;91.68;101558.80;271525;1260;22390;-84
2023/02/08 21:26:01;;;;;;;219.40;97.00;;;;;;;-6.45;92.20;101559.90;273055;1269;305343;-83
2023/02/08 21:32:03;;;;;;;261.80;107.90;;;;;;;-6.56;91.75;101559.46;272819;1269;23504;-83
2023/02/08 21:38:05;;;;;;;289.10;115.00;;;;;;;-6.62;92.06;101560.40;273610;1267;22227;-83
2023/02/08 21:44:08;;;;;;;269.00;112.50;;;;;;;-6.66;92.12;101546.14;273382;1269;22385;-82
2023/02/08 21:56:30;;;;;;;248.10;102.00;;;;;;;-6.72;92.46;101527.05;273610;1269;22214;-82
2023/02/08 22:02:32;;;;;;;247.20;101.00;;;;;;;-6.80;92.25;101530.15;273647;1268;22328;-81
2023/02/08 22:08:34;;;;;;;257.60;105.40;;;;;;;-6.94;91.93;101526.86;272215;1269;25347;-80
2023/02/08 22:14:36;;;;;;;246.70;103.80;;;;;;;-7.12;91.85;101523.77;269669;1270;23084;-82
2023/02/08 22:20:40;;;;;;;267.40;108.10;;;;;;;-7.16;92.62;101517.13;271944;1260;23808;-80
2023/02/08 22:26:42;;;;;;;277.20;115.90;;;;;;;-7.15;92.82;101518.77;273767;1257;23272;-80
2023/02/08 22:32:48;;;;;;;291.10;124.80;;;;;;;-7.23;92.58;101515.46;271796;1269;22435;-80
2023/02/08 22:38:50;;;;;;;310.30;128.30;;;;;;;-7.34;92.46;101510.55;273476;1270;22308;-80
2023/02/08 22:44:53;;;;;;;294.50;121.10;;;;;;;-7.44;92.46;101514.91;273169;1254;22410;-80
2023/02/08 22:50:55;;;;;;;291.70;117.80;;;;;;;-7.57;92.18;101519.43;270953;1269;22582;-82
2023/02/08 22:56:57;;;;;;;284.10;123.00;;;;;;;-7.69;92.34;101511.42;270401;1269;26649;-81
2023/02/08 23:02:58;;;;;;;286.60;118.80;;;;;;;-7.76;92.68;101505.04;269962;1268;22537;-81
2023/02/08 23:09:04;;;;;;;288.80;116.20;;;;;;;-7.80;92.72;101502.80;269574;1268;22567;-81
2023/02/08 23:15:06;;;;;;;279.80;114.70;;;;;;;-7.91;92.41;101505.08;269421;1269;22557;-79
2023/02/08 23:21:12;;;;;;;276.80;110.60;;;;;;;-8.07;92.18;101496.89;272291;1254;22219;-80
2023/02/08 23:27:13;;;;;;;297.30;122.70;;;;;;;-8.09;92.84;101493.41;271698;1269;22560;-79
2023/02/08 23:33:15;;;;;;;292.70;114.90;;;;;;;-8.04;93.19;101490.38;271793;1269;22201;-80
2023/02/08 23:39:17;;;;;;;278.20;116.00;;;;;;;-8.03;93.19;101487.36;273756;1258;22228;-80
2023/02/08 23:45:19;;;;;;;293.20;122.60;;;;;;;-8.06;93.20;101485.02;273821;1254;22400;-79
2023/02/08 23:51:23;;;;;;;272.50;114.90;;;;;;;-8.06;93.35;101484.31;273789;1269;22397;-79
2023/02/08 23:57:24;;;;;;;285.30;115.60;;;;;;;-8.11;93.10;101487.55;273786;1269;23175;-80
